Terminal Aerodrome Forecast
Issued by NWS Topeka, KS

Home | Current Version | Previous Version | Text Only | Print | Product List | Glossary Off
Versions: 1 2 3 4 5 6 7 8 9 10 11 12 13 14 15 16 17 18 19 20 21 22 23 24 25 26 27

000
FTUS43 KTOP 270300 AAA
TAFTOP
TAF AMD
KTOP 270315Z 2703/2724 02012G22KT 6SM -RA BR SCT015 OVC030
      TEMPO 2704/2706 3SM -RASN OVC015
     FM270600 01011KT 5SM -RASN OVC015
     FM270900 36005KT 5SM BR BKN012
     FM271400 01005KT P6SM SCT025=

USA.gov is the U.S. government's official web portal to all federal, state and local government web resources and services.